sensor_id;sensor_type;location;lat;lon;timestamp;P1;durP1;ratioP1;P2;durP2;ratioP2
40637;SDS011;26336;44.696;10.622;2023-03-02T00:00:20;22.60;;;16.27;;
40637;SDS011;26336;44.696;10.622;2023-03-02T00:03:24;20.60;;;16.20;;
40637;SDS011;26336;44.696;10.622;2023-03-02T00:06:29;22.13;;;16.27;;
40637;SDS011;26336;44.696;10.622;2023-03-02T00:09:34;21.90;;;16.87;;
40637;SDS011;26336;44.696;10.622;2023-03-02T00:12:39;24.20;;;17.60;;
40637;SDS011;26336;44.696;10.622;2023-03-02T00:15:43;21.43;;;16.53;;
40637;SDS011;26336;44.696;10.622;2023-03-02T00:18:48;21.80;;;16.80;;
40637;SDS011;26336;44.696;10.622;2023-03-02T00:21:52;19.90;;;15.17;;
40637;SDS011;26336;44.696;10.622;2023-03-02T00:24:55;19.27;;;14.97;;
40637;SDS011;26336;44.696;10.622;2023-03-02T00:27:59;16.87;;;13.67;;
40637;SDS011;26336;44.696;10.622;2023-03-02T00:31:04;17.23;;;13.27;;
40637;SDS011;26336;44.696;10.622;2023-03-02T00:34:08;17.80;;;13.27;;
40637;SDS011;26336;44.696;10.622;2023-03-02T00:37:12;18.30;;;14.13;;
40637;SDS011;26336;44.696;10.622;2023-03-02T00:40:17;17.10;;;13.63;;
40637;SDS011;26336;44.696;10.622;2023-03-02T00:43:21;17.10;;;13.03;;
40637;SDS011;26336;44.696;10.622;2023-03-02T00:46:30;16.57;;;13.43;;
40637;SDS011;26336;44.696;10.622;2023-03-02T00:49:33;16.63;;;13.53;;
40637;SDS011;26336;44.696;10.622;2023-03-02T00:52:38;16.40;;;13.30;;
40637;SDS011;26336;44.696;10.622;2023-03-02T00:55:42;16.73;;;12.87;;
40637;SDS011;26336;44.696;10.622;2023-03-02T00:58:55;18.08;;;13.65;;
40637;SDS011;26336;44.696;10.622;2023-03-02T01:01:59;16.13;;;13.30;;
40637;SDS011;26336;44.696;10.622;2023-03-02T01:05:06;16.93;;;13.83;;
40637;SDS011;26336;44.696;10.622;2023-03-02T01:08:10;16.93;;;13.50;;
40637;SDS011;26336;44.696;10.622;2023-03-02T01:11:15;16.07;;;12.60;;
40637;SDS011;26336;44.696;10.622;2023-03-02T01:14:20;19.60;;;14.97;;
40637;SDS011;26336;44.696;10.622;2023-03-02T01:17:25;16.47;;;13.10;;
40637;SDS011;26336;44.696;10.622;2023-03-02T01:20:30;15.70;;;12.93;;
40637;SDS011;26336;44.696;10.622;2023-03-02T01:23:34;17.17;;;13.57;;
40637;SDS011;26336;44.696;10.622;2023-03-02T01:26:37;15.67;;;12.93;;
40637;SDS011;26336;44.696;10.622;2023-03-02T01:29:41;15.77;;;13.07;;
40637;SDS011;26336;44.696;10.622;2023-03-02T01:32:46;15.67;;;12.67;;
40637;SDS011;26336;44.696;10.622;2023-03-02T01:35:49;14.97;;;12.93;;
40637;SDS011;26336;44.696;10.622;2023-03-02T01:38:53;15.70;;;13.10;;
40637;SDS011;26336;44.696;10.622;2023-03-02T01:41:58;15.20;;;12.07;;
40637;SDS011;26336;44.696;10.622;2023-03-02T01:45:02;17.10;;;13.20;;
40637;SDS011;26336;44.696;10.622;2023-03-02T01:48:07;13.47;;;11.77;;
40637;SDS011;26336;44.696;10.622;2023-03-02T01:51:15;15.70;;;11.67;;
40637;SDS011;26336;44.696;10.622;2023-03-02T01:54:22;14.47;;;11.57;;
40637;SDS011;26336;44.696;10.622;2023-03-02T01:57:32;14.47;;;11.40;;
40637;SDS011;26336;44.696;10.622;2023-03-02T02:00:46;13.30;;;10.97;;
40637;SDS011;26336;44.696;10.622;2023-03-02T02:03:51;12.47;;;11.03;;
40637;SDS011;26336;44.696;10.622;2023-03-02T02:07:02;14.33;;;10.50;;
40637;SDS011;26336;44.696;10.622;2023-03-02T02:10:08;13.10;;;10.95;;
40637;SDS011;26336;44.696;10.622;2023-03-02T02:13:13;13.83;;;11.37;;
40637;SDS011;26336;44.696;10.622;2023-03-02T02:16:17;14.30;;;11.90;;
40637;SDS011;26336;44.696;10.622;2023-03-02T02:29:00;18.47;;;15.27;;
40637;SDS011;26336;44.696;10.622;2023-03-02T02:32:25;17.03;;;13.67;;
40637;SDS011;26336;44.696;10.622;2023-03-02T02:35:33;16.70;;;13.87;;
40637;SDS011;26336;44.696;10.622;2023-03-02T02:38:41;18.53;;;15.47;;
40637;SDS011;26336;44.696;10.622;2023-03-02T02:41:51;18.53;;;14.23;;
40637;SDS011;26336;44.696;10.622;2023-03-02T02:45:00;17.27;;;14.00;;
40637;SDS011;26336;44.696;10.622;2023-03-02T02:48:11;16.23;;;13.30;;
40637;SDS011;26336;44.696;10.622;2023-03-02T02:51:20;18.23;;;14.50;;
40637;SDS011;26336;44.696;10.622;2023-03-02T02:54:28;17.27;;;14.10;;
40637;SDS011;26336;44.696;10.622;2023-03-02T02:57:33;15.33;;;12.87;;
40637;SDS011;26336;44.696;10.622;2023-03-02T03:00:37;16.43;;;13.90;;
40637;SDS011;26336;44.696;10.622;2023-03-02T03:03:42;17.27;;;14.33;;
40637;SDS011;26336;44.696;10.622;2023-03-02T03:06:54;17.97;;;13.37;;
40637;SDS011;26336;44.696;10.622;2023-03-02T03:10:16;17.77;;;14.40;;
40637;SDS011;26336;44.696;10.622;2023-03-02T03:13:23;16.30;;;13.57;;
40637;SDS011;26336;44.696;10.622;2023-03-02T03:16:28;16.23;;;13.40;;
40637;SDS011;26336;44.696;10.622;2023-03-02T03:19:33;15.60;;;12.97;;
40637;SDS011;26336;44.696;10.622;2023-03-02T03:22:38;16.10;;;13.00;;
40637;SDS011;26336;44.696;10.622;2023-03-02T03:25:44;15.67;;;12.27;;
40637;SDS011;26336;44.696;10.622;2023-03-02T03:28:48;14.90;;;12.83;;
40637;SDS011;26336;44.696;10.622;2023-03-02T03:31:53;16.50;;;13.33;;
40637;SDS011;26336;44.696;10.622;2023-03-02T03:35:00;16.60;;;13.73;;
40637;SDS011;26336;44.696;10.622;2023-03-02T03:38:08;16.17;;;13.90;;
40637;SDS011;26336;44.696;10.622;2023-03-02T03:41:12;17.67;;;13.47;;
40637;SDS011;26336;44.696;10.622;2023-03-02T03:44:17;18.97;;;15.43;;
40637;SDS011;26336;44.696;10.622;2023-03-02T03:47:21;18.90;;;15.23;;
40637;SDS011;26336;44.696;10.622;2023-03-02T03:50:27;23.87;;;18.17;;
40637;SDS011;26336;44.696;10.622;2023-03-02T03:53:31;26.10;;;19.53;;
40637;SDS011;26336;44.696;10.622;2023-03-02T03:56:37;26.67;;;19.73;;
40637;SDS011;26336;44.696;10.622;2023-03-02T03:59:44;28.70;;;20.90;;
40637;SDS011;26336;44.696;10.622;2023-03-02T04:02:48;27.37;;;20.90;;
40637;SDS011;26336;44.696;10.622;2023-03-02T04:05:53;30.63;;;21.87;;
40637;SDS011;26336;44.696;10.622;2023-03-02T04:08:58;31.53;;;23.60;;
40637;SDS011;26336;44.696;10.622;2023-03-02T04:12:07;29.33;;;22.83;;
40637;SDS011;26336;44.696;10.622;2023-03-02T04:15:13;33.93;;;24.43;;
40637;SDS011;26336;44.696;10.622;2023-03-02T04:18:19;35.43;;;25.43;;
40637;SDS011;26336;44.696;10.622;2023-03-02T04:21:23;35.03;;;25.67;;
40637;SDS011;26336;44.696;10.622;2023-03-02T04:24:28;34.97;;;24.17;;
40637;SDS011;26336;44.696;10.622;2023-03-02T04:27:36;35.80;;;26.03;;
40637;SDS011;26336;44.696;10.622;2023-03-02T04:30:40;35.07;;;25.27;;
40637;SDS011;26336;44.696;10.622;2023-03-02T04:33:44;35.13;;;24.00;;
40637;SDS011;26336;44.696;10.622;2023-03-02T04:36:49;35.57;;;25.30;;
40637;SDS011;26336;44.696;10.622;2023-03-02T04:39:53;38.13;;;26.30;;
40637;SDS011;26336;44.696;10.622;2023-03-02T04:42:57;34.23;;;24.70;;
40637;SDS011;26336;44.696;10.622;2023-03-02T04:46:01;34.20;;;24.77;;
40637;SDS011;26336;44.696;10.622;2023-03-02T04:49:06;37.37;;;25.60;;
40637;SDS011;26336;44.696;10.622;2023-03-02T04:52:10;32.27;;;24.03;;
40637;SDS011;26336;44.696;10.622;2023-03-02T04:55:17;32.80;;;23.80;;
40637;SDS011;26336;44.696;10.622;2023-03-02T04:58:24;30.40;;;23.37;;
40637;SDS011;26336;44.696;10.622;2023-03-02T05:01:28;33.07;;;23.93;;
40637;SDS011;26336;44.696;10.622;2023-03-02T05:04:32;32.73;;;22.60;;
40637;SDS011;26336;44.696;10.622;2023-03-02T05:07:36;30.47;;;23.27;;
40637;SDS011;26336;44.696;10.622;2023-03-02T05:10:40;31.03;;;22.30;;
40637;SDS011;26336;44.696;10.622;2023-03-02T05:13:44;32.03;;;23.67;;
40637;SDS011;26336;44.696;10.622;2023-03-02T05:16:48;32.07;;;24.00;;
40637;SDS011;26336;44.696;10.622;2023-03-02T05:19:53;32.33;;;22.80;;
40637;SDS011;26336;44.696;10.622;2023-03-02T05:22:58;32.83;;;22.90;;
40637;SDS011;26336;44.696;10.622;2023-03-02T05:26:03;31.27;;;22.77;;
40637;SDS011;26336;44.696;10.622;2023-03-02T05:29:07;29.70;;;22.20;;
40637;SDS011;26336;44.696;10.622;2023-03-02T05:32:11;31.30;;;22.57;;
40637;SDS011;26336;44.696;10.622;2023-03-02T05:35:15;31.60;;;22.87;;
40637;SDS011;26336;44.696;10.622;2023-03-02T05:38:19;30.17;;;22.43;;
40637;SDS011;26336;44.696;10.622;2023-03-02T05:41:23;29.77;;;22.03;;
40637;SDS011;26336;44.696;10.622;2023-03-02T05:44:28;30.23;;;21.70;;
40637;SDS011;26336;44.696;10.622;2023-03-02T05:47:32;28.90;;;20.83;;
40637;SDS011;26336;44.696;10.622;2023-03-02T05:50:36;31.40;;;21.13;;
40637;SDS011;26336;44.696;10.622;2023-03-02T05:53:40;30.10;;;21.53;;
40637;SDS011;26336;44.696;10.622;2023-03-02T05:56:44;30.10;;;21.40;;
40637;SDS011;26336;44.696;10.622;2023-03-02T05:59:48;31.40;;;22.07;;
40637;SDS011;26336;44.696;10.622;2023-03-02T06:02:53;31.27;;;20.30;;
40637;SDS011;26336;44.696;10.622;2023-03-02T06:05:58;33.17;;;22.07;;
40637;SDS011;26336;44.696;10.622;2023-03-02T06:09:02;33.07;;;23.00;;
40637;SDS011;26336;44.696;10.622;2023-03-02T06:12:06;33.17;;;22.80;;
40637;SDS011;26336;44.696;10.622;2023-03-02T06:15:11;31.37;;;22.07;;
40637;SDS011;26336;44.696;10.622;2023-03-02T06:18:15;29.80;;;21.27;;
40637;SDS011;26336;44.696;10.622;2023-03-02T06:21:19;32.80;;;22.40;;
40637;SDS011;26336;44.696;10.622;2023-03-02T06:24:23;33.87;;;23.83;;
40637;SDS011;26336;44.696;10.622;2023-03-02T06:27:27;33.20;;;22.63;;
40637;SDS011;26336;44.696;10.622;2023-03-02T06:30:31;34.57;;;24.90;;
40637;SDS011;26336;44.696;10.622;2023-03-02T06:33:34;34.40;;;24.50;;
40637;SDS011;26336;44.696;10.622;2023-03-02T06:36:38;33.83;;;23.50;;
40637;SDS011;26336;44.696;10.622;2023-03-02T06:39:42;33.87;;;23.20;;
40637;SDS011;26336;44.696;10.622;2023-03-02T06:42:51;32.50;;;23.50;;
40637;SDS011;26336;44.696;10.622;2023-03-02T06:45:55;32.13;;;23.77;;
40637;SDS011;26336;44.696;10.622;2023-03-02T06:48:59;33.90;;;22.77;;
40637;SDS011;26336;44.696;10.622;2023-03-02T06:52:03;35.03;;;22.70;;
40637;SDS011;26336;44.696;10.622;2023-03-02T06:55:09;31.57;;;22.47;;
40637;SDS011;26336;44.696;10.622;2023-03-02T06:58:14;33.57;;;21.53;;
40637;SDS011;26336;44.696;10.622;2023-03-02T07:01:18;28.47;;;21.47;;
40637;SDS011;26336;44.696;10.622;2023-03-02T07:04:22;30.10;;;20.60;;
40637;SDS011;26336;44.696;10.622;2023-03-02T07:07:26;30.03;;;21.70;;
40637;SDS011;26336;44.696;10.622;2023-03-02T07:10:30;33.73;;;22.60;;
40637;SDS011;26336;44.696;10.622;2023-03-02T07:13:36;34.10;;;22.87;;
40637;SDS011;26336;44.696;10.622;2023-03-02T07:16:43;32.47;;;22.23;;
40637;SDS011;26336;44.696;10.622;2023-03-02T07:19:46;32.37;;;22.97;;
40637;SDS011;26336;44.696;10.622;2023-03-02T07:22:51;34.33;;;23.77;;
40637;SDS011;26336;44.696;10.622;2023-03-02T07:25:55;36.57;;;24.13;;
40637;SDS011;26336;44.696;10.622;2023-03-02T07:29:00;37.63;;;24.73;;
40637;SDS011;26336;44.696;10.622;2023-03-02T07:32:04;35.60;;;24.90;;
40637;SDS011;26336;44.696;10.622;2023-03-02T07:35:09;38.63;;;24.83;;
40637;SDS011;26336;44.696;10.622;2023-03-02T07:38:13;35.13;;;24.43;;
40637;SDS011;26336;44.696;10.622;2023-03-02T07:41:16;36.10;;;24.40;;
40637;SDS011;26336;44.696;10.622;2023-03-02T07:44:21;37.57;;;24.53;;
40637;SDS011;26336;44.696;10.622;2023-03-02T07:47:25;39.03;;;24.87;;
40637;SDS011;26336;44.696;10.622;2023-03-02T07:50:29;39.17;;;25.87;;
40637;SDS011;26336;44.696;10.622;2023-03-02T07:53:33;36.90;;;24.73;;
40637;SDS011;26336;44.696;10.622;2023-03-02T07:56:37;33.80;;;24.13;;
40637;SDS011;26336;44.696;10.622;2023-03-02T07:59:41;38.13;;;25.13;;
40637;SDS011;26336;44.696;10.622;2023-03-02T08:02:46;35.67;;;25.17;;
40637;SDS011;26336;44.696;10.622;2023-03-02T08:05:49;33.67;;;24.47;;
40637;SDS011;26336;44.696;10.622;2023-03-02T08:08:53;36.37;;;24.37;;
40637;SDS011;26336;44.696;10.622;2023-03-02T08:11:58;36.83;;;24.27;;
40637;SDS011;26336;44.696;10.622;2023-03-02T08:15:02;34.53;;;24.33;;
40637;SDS011;26336;44.696;10.622;2023-03-02T08:18:07;35.17;;;23.67;;
40637;SDS011;26336;44.696;10.622;2023-03-02T08:21:18;35.87;;;23.67;;
40637;SDS011;26336;44.696;10.622;2023-03-02T08:24:24;37.63;;;23.95;;
40637;SDS011;26336;44.696;10.622;2023-03-02T08:27:28;34.53;;;23.40;;
40637;SDS011;26336;44.696;10.622;2023-03-02T08:30:31;36.57;;;24.90;;
40637;SDS011;26336;44.696;10.622;2023-03-02T08:33:36;35.97;;;24.03;;
40637;SDS011;26336;44.696;10.622;2023-03-02T08:36:40;37.83;;;25.57;;
40637;SDS011;26336;44.696;10.622;2023-03-02T08:39:45;35.87;;;23.80;;
40637;SDS011;26336;44.696;10.622;2023-03-02T08:42:50;36.50;;;24.17;;
40637;SDS011;26336;44.696;10.622;2023-03-02T08:45:59;36.70;;;24.17;;
40637;SDS011;26336;44.696;10.622;2023-03-02T08:49:03;38.10;;;24.83;;
40637;SDS011;26336;44.696;10.622;2023-03-02T08:52:07;38.73;;;25.93;;
40637;SDS011;26336;44.696;10.622;2023-03-02T08:55:11;36.03;;;24.87;;
40637;SDS011;26336;44.696;10.622;2023-03-02T08:58:16;39.23;;;26.50;;
40637;SDS011;26336;44.696;10.622;2023-03-02T09:01:21;39.90;;;26.60;;
40637;SDS011;26336;44.696;10.622;2023-03-02T09:04:26;41.87;;;28.43;;
40637;SDS011;26336;44.696;10.622;2023-03-02T09:07:31;44.00;;;29.30;;
40637;SDS011;26336;44.696;10.622;2023-03-02T09:10:35;44.97;;;30.50;;
40637;SDS011;26336;44.696;10.622;2023-03-02T09:13:40;62.47;;;39.57;;
40637;SDS011;26336;44.696;10.622;2023-03-02T09:16:44;49.57;;;31.90;;
40637;SDS011;26336;44.696;10.622;2023-03-02T09:19:48;47.80;;;32.20;;
40637;SDS011;26336;44.696;10.622;2023-03-02T09:22:52;48.73;;;32.63;;
40637;SDS011;26336;44.696;10.622;2023-03-02T09:25:56;47.90;;;31.47;;
40637;SDS011;26336;44.696;10.622;2023-03-02T09:29:01;45.13;;;31.00;;
40637;SDS011;26336;44.696;10.622;2023-03-02T09:32:05;46.97;;;30.73;;
40637;SDS011;26336;44.696;10.622;2023-03-02T09:35:09;43.10;;;30.33;;
40637;SDS011;26336;44.696;10.622;2023-03-02T09:38:13;47.57;;;33.17;;
40637;SDS011;26336;44.696;10.622;2023-03-02T09:47:51;44.77;;;30.80;;
40637;SDS011;26336;44.696;10.622;2023-03-02T09:54:27;46.93;;;31.40;;
40637;SDS011;26336;44.696;10.622;2023-03-02T09:57:34;44.50;;;31.17;;
40637;SDS011;26336;44.696;10.622;2023-03-02T10:00:40;44.33;;;28.67;;
40637;SDS011;26336;44.696;10.622;2023-03-02T10:03:47;45.07;;;30.67;;
40637;SDS011;26336;44.696;10.622;2023-03-02T10:07:09;44.47;;;30.90;;
40637;SDS011;26336;44.696;10.622;2023-03-02T10:13:33;44.17;;;30.03;;
40637;SDS011;26336;44.696;10.622;2023-03-02T10:16:54;45.03;;;30.13;;
40637;SDS011;26336;44.696;10.622;2023-03-02T10:20:30;43.30;;;29.57;;
40637;SDS011;26336;44.696;10.622;2023-03-02T10:23:41;40.73;;;28.83;;
40637;SDS011;26336;44.696;10.622;2023-03-02T10:26:53;41.70;;;29.00;;
40637;SDS011;26336;44.696;10.622;2023-03-02T10:33:29;39.50;;;27.53;;
40637;SDS011;26336;44.696;10.622;2023-03-02T10:36:42;41.17;;;28.23;;
40637;SDS011;26336;44.696;10.622;2023-03-02T10:39:47;40.97;;;26.87;;
40637;SDS011;26336;44.696;10.622;2023-03-02T10:42:52;38.33;;;27.60;;
40637;SDS011;26336;44.696;10.622;2023-03-02T10:45:58;36.67;;;27.20;;
40637;SDS011;26336;44.696;10.622;2023-03-02T10:49:04;35.57;;;25.87;;
40637;SDS011;26336;44.696;10.622;2023-03-02T10:52:12;33.23;;;24.13;;
40637;SDS011;26336;44.696;10.622;2023-03-02T10:55:18;33.83;;;24.23;;
40637;SDS011;26336;44.696;10.622;2023-03-02T11:01:33;35.93;;;25.60;;
40637;SDS011;26336;44.696;10.622;2023-03-02T11:04:38;34.20;;;23.60;;
40637;SDS011;26336;44.696;10.622;2023-03-02T11:07:51;33.53;;;23.73;;
40637;SDS011;26336;44.696;10.622;2023-03-02T11:11:20;26.55;;;18.92;;
40637;SDS011;26336;44.696;10.622;2023-03-02T11:14:25;30.93;;;21.67;;
40637;SDS011;26336;44.696;10.622;2023-03-02T11:17:33;28.37;;;21.70;;
40637;SDS011;26336;44.696;10.622;2023-03-02T11:20:41;32.37;;;23.00;;
40637;SDS011;26336;44.696;10.622;2023-03-02T11:27:05;27.98;;;22.33;;
40637;SDS011;26336;44.696;10.622;2023-03-02T11:30:16;27.27;;;19.63;;
40637;SDS011;26336;44.696;10.622;2023-03-02T11:33:27;32.33;;;22.17;;
40637;SDS011;26336;44.696;10.622;2023-03-02T11:36:44;32.33;;;21.07;;
40637;SDS011;26336;44.696;10.622;2023-03-02T11:40:00;31.50;;;22.50;;
40637;SDS011;26336;44.696;10.622;2023-03-02T11:43:28;29.17;;;20.93;;
40637;SDS011;26336;44.696;10.622;2023-03-02T11:46:32;32.47;;;22.70;;
40637;SDS011;26336;44.696;10.622;2023-03-02T11:49:41;30.07;;;21.63;;
40637;SDS011;26336;44.696;10.622;2023-03-02T11:52:50;34.47;;;22.60;;
40637;SDS011;26336;44.696;10.622;2023-03-02T11:55:58;34.07;;;22.53;;
40637;SDS011;26336;44.696;10.622;2023-03-02T11:59:06;35.17;;;24.40;;
40637;SDS011;26336;44.696;10.622;2023-03-02T12:02:19;31.90;;;23.00;;
40637;SDS011;26336;44.696;10.622;2023-03-02T12:05:25;31.07;;;22.60;;
40637;SDS011;26336;44.696;10.622;2023-03-02T12:08:35;31.17;;;23.00;;
40637;SDS011;26336;44.696;10.622;2023-03-02T12:11:44;32.27;;;23.10;;
40637;SDS011;26336;44.696;10.622;2023-03-02T12:14:48;33.57;;;23.00;;
40637;SDS011;26336;44.696;10.622;2023-03-02T12:17:52;39.10;;;25.03;;
40637;SDS011;26336;44.696;10.622;2023-03-02T12:21:06;33.70;;;23.77;;
40637;SDS011;26336;44.696;10.622;2023-03-02T12:24:46;33.23;;;23.97;;
40637;SDS011;26336;44.696;10.622;2023-03-02T12:30:55;35.57;;;24.90;;
40637;SDS011;26336;44.696;10.622;2023-03-02T12:34:07;35.53;;;24.35;;
40637;SDS011;26336;44.696;10.622;2023-03-02T12:37:50;39.23;;;26.20;;
40637;SDS011;26336;44.696;10.622;2023-03-02T12:44:45;37.67;;;24.87;;
40637;SDS011;26336;44.696;10.622;2023-03-02T12:48:04;37.40;;;25.40;;
40637;SDS011;26336;44.696;10.622;2023-03-02T12:51:23;37.43;;;25.63;;
40637;SDS011;26336;44.696;10.622;2023-03-02T12:54:33;35.60;;;25.50;;
40637;SDS011;26336;44.696;10.622;2023-03-02T12:57:37;36.50;;;25.23;;
40637;SDS011;26336;44.696;10.622;2023-03-02T13:00:58;36.23;;;25.53;;
40637;SDS011;26336;44.696;10.622;2023-03-02T13:04:03;38.87;;;26.67;;
40637;SDS011;26336;44.696;10.622;2023-03-02T13:07:14;40.10;;;27.17;;
40637;SDS011;26336;44.696;10.622;2023-03-02T13:10:33;35.67;;;25.40;;
40637;SDS011;26336;44.696;10.622;2023-03-02T13:14:17;36.37;;;24.27;;
40637;SDS011;26336;44.696;10.622;2023-03-02T13:17:25;34.37;;;23.17;;
40637;SDS011;26336;44.696;10.622;2023-03-02T13:20:34;30.77;;;21.73;;
40637;SDS011;26336;44.696;10.622;2023-03-02T13:23:43;33.50;;;21.80;;
40637;SDS011;26336;44.696;10.622;2023-03-02T13:27:02;31.60;;;21.53;;
40637;SDS011;26336;44.696;10.622;2023-03-02T13:30:10;30.00;;;21.17;;
40637;SDS011;26336;44.696;10.622;2023-03-02T13:33:30;28.37;;;21.57;;
40637;SDS011;26336;44.696;10.622;2023-03-02T13:36:35;32.90;;;22.87;;
40637;SDS011;26336;44.696;10.622;2023-03-02T13:39:40;31.13;;;22.57;;
40637;SDS011;26336;44.696;10.622;2023-03-02T13:42:44;31.80;;;23.53;;
40637;SDS011;26336;44.696;10.622;2023-03-02T13:45:50;32.03;;;22.27;;
40637;SDS011;26336;44.696;10.622;2023-03-02T13:48:57;31.03;;;23.60;;
40637;SDS011;26336;44.696;10.622;2023-03-02T13:52:03;31.10;;;22.90;;
40637;SDS011;26336;44.696;10.622;2023-03-02T13:55:22;31.77;;;22.70;;
40637;SDS011;26336;44.696;10.622;2023-03-02T13:58:26;32.00;;;23.93;;
40637;SDS011;26336;44.696;10.622;2023-03-02T14:01:32;32.90;;;22.43;;
40637;SDS011;26336;44.696;10.622;2023-03-02T14:04:37;28.57;;;21.40;;
40637;SDS011;26336;44.696;10.622;2023-03-02T14:07:41;31.70;;;23.37;;
40637;SDS011;26336;44.696;10.622;2023-03-02T14:10:46;30.37;;;22.20;;
40637;SDS011;26336;44.696;10.622;2023-03-02T14:13:52;30.67;;;22.30;;
40637;SDS011;26336;44.696;10.622;2023-03-02T14:16:57;34.13;;;23.73;;
40637;SDS011;26336;44.696;10.622;2023-03-02T14:20:01;31.97;;;23.43;;
40637;SDS011;26336;44.696;10.622;2023-03-02T14:23:04;31.67;;;22.47;;
40637;SDS011;26336;44.696;10.622;2023-03-02T14:29:46;31.60;;;22.93;;
40637;SDS011;26336;44.696;10.622;2023-03-02T14:32:50;34.30;;;24.40;;
40637;SDS011;26336;44.696;10.622;2023-03-02T14:35:55;33.47;;;23.40;;
40637;SDS011;26336;44.696;10.622;2023-03-02T14:39:02;34.37;;;23.67;;
40637;SDS011;26336;44.696;10.622;2023-03-02T14:42:10;30.60;;;22.17;;
40637;SDS011;26336;44.696;10.622;2023-03-02T14:45:20;34.40;;;23.03;;
40637;SDS011;26336;44.696;10.622;2023-03-02T14:48:25;33.03;;;23.23;;
40637;SDS011;26336;44.696;10.622;2023-03-02T14:51:30;34.30;;;24.07;;
40637;SDS011;26336;44.696;10.622;2023-03-02T14:54:47;35.90;;;25.03;;
40637;SDS011;26336;44.696;10.622;2023-03-02T14:57:56;37.00;;;24.33;;
40637;SDS011;26336;44.696;10.622;2023-03-02T15:01:05;35.53;;;24.60;;
40637;SDS011;26336;44.696;10.622;2023-03-02T15:04:09;35.67;;;24.20;;
40637;SDS011;26336;44.696;10.622;2023-03-02T15:07:13;30.57;;;22.07;;
40637;SDS011;26336;44.696;10.622;2023-03-02T15:10:19;32.60;;;24.03;;
40637;SDS011;26336;44.696;10.622;2023-03-02T15:13:24;35.50;;;23.53;;
40637;SDS011;26336;44.696;10.622;2023-03-02T15:16:28;30.73;;;23.13;;
40637;SDS011;26336;44.696;10.622;2023-03-02T15:19:32;33.90;;;22.87;;
40637;SDS011;26336;44.696;10.622;2023-03-02T15:22:36;33.00;;;22.50;;
40637;SDS011;26336;44.696;10.622;2023-03-02T15:25:40;36.90;;;22.97;;
40637;SDS011;26336;44.696;10.622;2023-03-02T15:28:48;32.30;;;23.20;;
40637;SDS011;26336;44.696;10.622;2023-03-02T15:31:53;31.00;;;22.17;;
40637;SDS011;26336;44.696;10.622;2023-03-02T15:34:57;31.07;;;22.63;;
40637;SDS011;26336;44.696;10.622;2023-03-02T15:38:01;32.07;;;22.13;;
40637;SDS011;26336;44.696;10.622;2023-03-02T15:41:10;30.33;;;22.87;;
40637;SDS011;26336;44.696;10.622;2023-03-02T15:44:16;31.20;;;21.87;;
40637;SDS011;26336;44.696;10.622;2023-03-02T15:47:24;30.67;;;21.37;;
40637;SDS011;26336;44.696;10.622;2023-03-02T15:50:28;32.70;;;22.63;;
40637;SDS011;26336;44.696;10.622;2023-03-02T15:53:33;31.40;;;23.03;;
40637;SDS011;26336;44.696;10.622;2023-03-02T15:56:38;30.53;;;22.27;;
40637;SDS011;26336;44.696;10.622;2023-03-02T15:59:42;33.27;;;22.50;;
40637;SDS011;26336;44.696;10.622;2023-03-02T16:02:47;34.60;;;24.10;;
40637;SDS011;26336;44.696;10.622;2023-03-02T16:05:55;34.07;;;24.10;;
40637;SDS011;26336;44.696;10.622;2023-03-02T16:09:01;32.63;;;22.97;;
40637;SDS011;26336;44.696;10.622;2023-03-02T16:12:06;33.77;;;23.60;;
40637;SDS011;26336;44.696;10.622;2023-03-02T16:15:10;31.80;;;22.90;;
40637;SDS011;26336;44.696;10.622;2023-03-02T16:18:14;33.17;;;23.23;;
40637;SDS011;26336;44.696;10.622;2023-03-02T16:21:19;33.53;;;23.63;;
40637;SDS011;26336;44.696;10.622;2023-03-02T16:24:29;34.23;;;24.23;;
40637;SDS011;26336;44.696;10.622;2023-03-02T16:27:33;30.13;;;22.37;;
40637;SDS011;26336;44.696;10.622;2023-03-02T16:30:37;32.60;;;22.97;;
40637;SDS011;26336;44.696;10.622;2023-03-02T16:33:42;34.60;;;24.07;;
40637;SDS011;26336;44.696;10.622;2023-03-02T16:36:47;34.60;;;24.90;;
40637;SDS011;26336;44.696;10.622;2023-03-02T16:39:51;32.57;;;24.53;;
40637;SDS011;26336;44.696;10.622;2023-03-02T16:42:55;37.07;;;25.10;;
40637;SDS011;26336;44.696;10.622;2023-03-02T16:45:59;39.87;;;26.60;;
40637;SDS011;26336;44.696;10.622;2023-03-02T16:49:04;34.70;;;25.10;;
40637;SDS011;26336;44.696;10.622;2023-03-02T16:52:08;36.17;;;26.10;;
40637;SDS011;26336;44.696;10.622;2023-03-02T16:55:14;35.53;;;25.37;;
40637;SDS011;26336;44.696;10.622;2023-03-02T16:58:20;36.00;;;25.77;;
40637;SDS011;26336;44.696;10.622;2023-03-02T17:01:24;34.77;;;24.80;;
40637;SDS011;26336;44.696;10.622;2023-03-02T17:04:28;36.40;;;25.73;;
40637;SDS011;26336;44.696;10.622;2023-03-02T17:07:32;37.00;;;24.47;;
40637;SDS011;26336;44.696;10.622;2023-03-02T17:10:36;40.77;;;27.57;;
40637;SDS011;26336;44.696;10.622;2023-03-02T17:13:40;37.23;;;26.47;;
40637;SDS011;26336;44.696;10.622;2023-03-02T17:16:44;37.93;;;27.23;;
40637;SDS011;26336;44.696;10.622;2023-03-02T17:19:48;39.93;;;28.43;;
40637;SDS011;26336;44.696;10.622;2023-03-02T17:22:53;42.23;;;28.97;;
40637;SDS011;26336;44.696;10.622;2023-03-02T17:25:57;40.77;;;27.03;;
40637;SDS011;26336;44.696;10.622;2023-03-02T17:29:01;39.40;;;27.27;;
40637;SDS011;26336;44.696;10.622;2023-03-02T17:32:06;37.83;;;27.83;;
40637;SDS011;26336;44.696;10.622;2023-03-02T17:35:10;38.67;;;27.27;;
40637;SDS011;26336;44.696;10.622;2023-03-02T17:38:16;39.60;;;27.23;;
40637;SDS011;26336;44.696;10.622;2023-03-02T17:41:21;41.40;;;27.73;;
40637;SDS011;26336;44.696;10.622;2023-03-02T17:44:24;37.70;;;27.13;;
40637;SDS011;26336;44.696;10.622;2023-03-02T17:47:32;37.77;;;26.03;;
40637;SDS011;26336;44.696;10.622;2023-03-02T17:50:44;36.37;;;26.07;;
40637;SDS011;26336;44.696;10.622;2023-03-02T17:53:48;36.40;;;25.20;;
40637;SDS011;26336;44.696;10.622;2023-03-02T17:56:54;37.83;;;26.37;;
40637;SDS011;26336;44.696;10.622;2023-03-02T17:59:58;38.63;;;27.70;;
40637;SDS011;26336;44.696;10.622;2023-03-02T18:03:03;38.70;;;27.93;;
40637;SDS011;26336;44.696;10.622;2023-03-02T18:06:07;39.97;;;27.10;;
40637;SDS011;26336;44.696;10.622;2023-03-02T18:09:12;40.80;;;28.63;;
40637;SDS011;26336;44.696;10.622;2023-03-02T18:12:40;43.63;;;28.70;;
40637;SDS011;26336;44.696;10.622;2023-03-02T18:15:44;38.57;;;27.07;;
40637;SDS011;26336;44.696;10.622;2023-03-02T18:18:56;42.40;;;28.77;;
40637;SDS011;26336;44.696;10.622;2023-03-02T18:22:01;42.47;;;28.33;;
40637;SDS011;26336;44.696;10.622;2023-03-02T18:25:18;39.20;;;27.40;;
40637;SDS011;26336;44.696;10.622;2023-03-02T18:28:22;40.63;;;27.93;;
40637;SDS011;26336;44.696;10.622;2023-03-02T18:31:27;42.83;;;30.17;;
40637;SDS011;26336;44.696;10.622;2023-03-02T18:34:31;42.10;;;30.27;;
40637;SDS011;26336;44.696;10.622;2023-03-02T18:37:35;43.40;;;30.27;;